Aérodrome :
LOGIN :

S'inscrire | Disclaimer

   EN    FR    IT 

 










Légende :    VFR   VFR Marginal   IFR   IFR Intensif   IFR Très Intensif
Visi : 
Plafond : 
>= 8 km
>= 3000ft
5 à 8 km
1000 à 3000 ft
1500m à 5 km
500 à 1000 ft
800 à 1500m
200 à 500 ft
< 800m
< 200 ft
Symboles :   Orages  Brouillard  Fortes neiges  Fortes précipitations  Vent > 20 kt
SIGMETs :   Divers  Orages  Givrage  Turbulence  Onde Orograph.  Cendres Volcan.







- Altitude de l'aérodrome : 203 ft
- Code IATA : XMJ
- Voir les cartes d'approche


LFBM - Mont-De-Marsan

DERNIER METAR :
  • 200100Z AUTO 27005KT 9999 -RADZ OVC006 10/10 Q1018 BECMG RADZ BKN004 BKN010 OVC015

METARs EXPIRÉS :
  • 200030Z AUTO 27005KT 9999 BKN008 OVC012 10/09 Q1018 BECMG RADZ BKN004 BKN010 OVC015
  • 200000Z AUTO 29004KT 9999 -DZ OVC007 10/09 Q1018 BECMG RADZ BKN004 BKN010 OVC015
  • 192330Z AUTO 30003KT 9999 OVC006 09/09 Q1018 BECMG RADZ BKN004 BKN010 OVC015
  • 192300Z AUTO 28004KT 9999 SCT006 BKN013 OVC048 09/09 Q1018 BECMG RADZ BKN004 BKN010 OVC015
  • 192230Z AUTO 30004KT 9999 -RA BKN007 OVC039 10/09 Q1018 BECMG RADZ BKN004 BKN010 OVC015

TAF TAF LFBM
Valide du 19 à 21h jusqu'au 20 à 21h UTC


192000Z 1921/2021 35005KT 5000 RADZ BKN004 BKN010 OVC015
BECMG 2003/2006 9999 SCT010 BKN015
BECMG 2009/2012 NSW SCT010 BKN015
Pas de NOTAMs connus pour ce terrain.



MET'MAP, la Météo Aéronautique d'un coup d'oeil ! - Copyright ORBIFLY Décembre 2007 - Disclaimer

ORBIFLY MET'MAP TEAM :

Programmation & Développement : Alexandra Zaïnal
Conception & Développement : Baudouin d'Aumeries
Co-Programmation & Développement : Marc-Olivier Méhu
Soutien technique & logistique : Manuel Goepfert

Contact : metmap@orbifly.com




SOURCES & CREDITS :

   NOAA